sensor_id;sensor_type;location;lat;lon;timestamp;P1;durP1;ratioP1;P2;durP2;ratioP2
36923;SDS011;22841;50.252;18.688;2023-04-25T00:00:19;40.58;;;21.10;;
36923;SDS011;22841;50.252;18.688;2023-04-25T00:02:45;45.30;;;23.60;;
36923;SDS011;22841;50.252;18.688;2023-04-25T00:05:11;56.95;;;27.92;;
36923;SDS011;22841;50.252;18.688;2023-04-25T00:07:38;53.05;;;28.65;;
36923;SDS011;22841;50.252;18.688;2023-04-25T00:10:04;38.65;;;21.52;;
36923;SDS011;22841;50.252;18.688;2023-04-25T00:12:36;35.85;;;18.35;;
36923;SDS011;22841;50.252;18.688;2023-04-25T00:15:03;25.98;;;16.48;;
36923;SDS011;22841;50.252;18.688;2023-04-25T00:17:29;27.20;;;15.20;;
36923;SDS011;22841;50.252;18.688;2023-04-25T00:19:56;23.25;;;14.48;;
36923;SDS011;22841;50.252;18.688;2023-04-25T00:22:23;24.88;;;14.68;;
36923;SDS011;22841;50.252;18.688;2023-04-25T00:24:49;24.05;;;14.55;;
36923;SDS011;22841;50.252;18.688;2023-04-25T00:27:16;24.50;;;12.90;;
36923;SDS011;22841;50.252;18.688;2023-04-25T00:29:42;18.35;;;11.50;;
36923;SDS011;22841;50.252;18.688;2023-04-25T00:32:08;15.95;;;10.18;;
36923;SDS011;22841;50.252;18.688;2023-04-25T00:34:34;13.32;;;8.20;;
36923;SDS011;22841;50.252;18.688;2023-04-25T00:37:00;14.73;;;7.13;;
36923;SDS011;22841;50.252;18.688;2023-04-25T00:39:27;6.63;;;5.35;;
36923;SDS011;22841;50.252;18.688;2023-04-25T00:41:54;11.65;;;5.30;;
36923;SDS011;22841;50.252;18.688;2023-04-25T00:44:20;7.10;;;4.80;;
36923;SDS011;22841;50.252;18.688;2023-04-25T00:46:49;6.30;;;4.68;;
36923;SDS011;22841;50.252;18.688;2023-04-25T00:49:16;9.40;;;4.95;;
36923;SDS011;22841;50.252;18.688;2023-04-25T00:51:42;6.30;;;4.97;;
36923;SDS011;22841;50.252;18.688;2023-04-25T00:54:12;6.35;;;4.63;;
36923;SDS011;22841;50.252;18.688;2023-04-25T00:56:39;9.15;;;5.40;;
36923;SDS011;22841;50.252;18.688;2023-04-25T00:59:06;7.20;;;4.80;;
36923;SDS011;22841;50.252;18.688;2023-04-25T01:01:32;5.88;;;4.45;;
36923;SDS011;22841;50.252;18.688;2023-04-25T01:03:58;10.35;;;5.35;;
36923;SDS011;22841;50.252;18.688;2023-04-25T01:06:25;7.18;;;5.05;;
36923;SDS011;22841;50.252;18.688;2023-04-25T01:08:52;7.95;;;5.10;;
36923;SDS011;22841;50.252;18.688;2023-04-25T01:11:19;9.82;;;4.82;;
36923;SDS011;22841;50.252;18.688;2023-04-25T01:13:45;7.13;;;5.07;;
36923;SDS011;22841;50.252;18.688;2023-04-25T01:16:11;8.25;;;5.68;;
36923;SDS011;22841;50.252;18.688;2023-04-25T01:18:40;9.80;;;5.40;;
36923;SDS011;22841;50.252;18.688;2023-04-25T01:21:08;5.82;;;5.10;;
36923;SDS011;22841;50.252;18.688;2023-04-25T01:23:39;6.75;;;5.05;;
36923;SDS011;22841;50.252;18.688;2023-04-25T01:26:06;9.02;;;4.93;;
36923;SDS011;22841;50.252;18.688;2023-04-25T01:28:34;7.65;;;4.93;;
36923;SDS011;22841;50.252;18.688;2023-04-25T01:31:00;7.10;;;4.90;;
36923;SDS011;22841;50.252;18.688;2023-04-25T01:33:27;6.20;;;4.28;;
36923;SDS011;22841;50.252;18.688;2023-04-25T01:35:53;7.05;;;4.78;;
36923;SDS011;22841;50.252;18.688;2023-04-25T01:38:19;4.85;;;4.05;;
36923;SDS011;22841;50.252;18.688;2023-04-25T01:40:45;5.30;;;4.28;;
36923;SDS011;22841;50.252;18.688;2023-04-25T01:43:14;6.65;;;3.85;;
36923;SDS011;22841;50.252;18.688;2023-04-25T01:45:40;5.43;;;3.58;;
36923;SDS011;22841;50.252;18.688;2023-04-25T01:48:08;7.68;;;4.20;;
36923;SDS011;22841;50.252;18.688;2023-04-25T01:50:35;4.75;;;3.63;;
36923;SDS011;22841;50.252;18.688;2023-04-25T01:53:01;4.60;;;3.63;;
36923;SDS011;22841;50.252;18.688;2023-04-25T01:55:27;4.15;;;3.15;;
36923;SDS011;22841;50.252;18.688;2023-04-25T01:57:53;6.45;;;4.10;;
36923;SDS011;22841;50.252;18.688;2023-04-25T02:00:19;3.72;;;2.92;;
36923;SDS011;22841;50.252;18.688;2023-04-25T02:02:46;5.03;;;3.70;;
36923;SDS011;22841;50.252;18.688;2023-04-25T02:05:12;5.32;;;3.88;;
36923;SDS011;22841;50.252;18.688;2023-04-25T02:07:38;12.38;;;3.45;;
36923;SDS011;22841;50.252;18.688;2023-04-25T02:10:04;5.63;;;3.20;;
36923;SDS011;22841;50.252;18.688;2023-04-25T02:12:31;3.78;;;3.08;;
36923;SDS011;22841;50.252;18.688;2023-04-25T02:14:57;9.82;;;3.22;;
36923;SDS011;22841;50.252;18.688;2023-04-25T02:17:23;4.57;;;2.55;;
36923;SDS011;22841;50.252;18.688;2023-04-25T02:19:49;3.95;;;3.03;;
36923;SDS011;22841;50.252;18.688;2023-04-25T02:22:15;2.72;;;2.17;;
36923;SDS011;22841;50.252;18.688;2023-04-25T02:24:41;3.85;;;2.38;;
36923;SDS011;22841;50.252;18.688;2023-04-25T02:27:07;6.47;;;2.47;;
36923;SDS011;22841;50.252;18.688;2023-04-25T02:29:33;4.95;;;2.80;;
36923;SDS011;22841;50.252;18.688;2023-04-25T02:32:00;5.32;;;2.33;;
36923;SDS011;22841;50.252;18.688;2023-04-25T02:34:26;3.20;;;2.00;;
36923;SDS011;22841;50.252;18.688;2023-04-25T02:36:52;3.28;;;2.55;;
36923;SDS011;22841;50.252;18.688;2023-04-25T02:39:18;7.30;;;2.30;;
36923;SDS011;22841;50.252;18.688;2023-04-25T02:41:44;8.98;;;2.65;;
36923;SDS011;22841;50.252;18.688;2023-04-25T02:44:10;7.97;;;2.50;;
36923;SDS011;22841;50.252;18.688;2023-04-25T02:46:36;2.10;;;1.90;;
36923;SDS011;22841;50.252;18.688;2023-04-25T02:49:02;2.88;;;1.88;;
36923;SDS011;22841;50.252;18.688;2023-04-25T02:51:28;3.90;;;3.25;;
36923;SDS011;22841;50.252;18.688;2023-04-25T02:53:55;7.57;;;2.10;;
36923;SDS011;22841;50.252;18.688;2023-04-25T02:56:21;4.97;;;2.22;;
36923;SDS011;22841;50.252;18.688;2023-04-25T02:58:47;4.97;;;1.90;;
36923;SDS011;22841;50.252;18.688;2023-04-25T03:01:13;3.08;;;2.03;;
36923;SDS011;22841;50.252;18.688;2023-04-25T03:03:40;6.68;;;1.92;;
36923;SDS011;22841;50.252;18.688;2023-04-25T03:06:06;7.13;;;2.03;;
36923;SDS011;22841;50.252;18.688;2023-04-25T03:08:32;6.85;;;2.13;;
36923;SDS011;22841;50.252;18.688;2023-04-25T03:10:59;5.65;;;2.38;;
36923;SDS011;22841;50.252;18.688;2023-04-25T03:13:26;4.00;;;2.20;;
36923;SDS011;22841;50.252;18.688;2023-04-25T03:15:52;2.22;;;1.80;;
36923;SDS011;22841;50.252;18.688;2023-04-25T03:18:18;2.47;;;2.08;;
36923;SDS011;22841;50.252;18.688;2023-04-25T03:20:44;2.90;;;2.08;;
36923;SDS011;22841;50.252;18.688;2023-04-25T03:23:12;2.22;;;2.03;;
36923;SDS011;22841;50.252;18.688;2023-04-25T03:25:38;3.53;;;2.40;;
36923;SDS011;22841;50.252;18.688;2023-04-25T03:28:04;3.33;;;2.00;;
36923;SDS011;22841;50.252;18.688;2023-04-25T03:30:30;3.05;;;2.33;;
36923;SDS011;22841;50.252;18.688;2023-04-25T03:32:56;2.65;;;1.92;;
36923;SDS011;22841;50.252;18.688;2023-04-25T03:35:22;2.00;;;1.80;;
36923;SDS011;22841;50.252;18.688;2023-04-25T03:37:49;2.80;;;2.35;;
36923;SDS011;22841;50.252;18.688;2023-04-25T03:40:15;3.63;;;2.40;;
36923;SDS011;22841;50.252;18.688;2023-04-25T03:42:41;2.90;;;2.42;;
36923;SDS011;22841;50.252;18.688;2023-04-25T03:45:07;5.38;;;2.33;;
36923;SDS011;22841;50.252;18.688;2023-04-25T03:47:33;2.95;;;2.67;;
36923;SDS011;22841;50.252;18.688;2023-04-25T03:49:59;3.25;;;2.60;;
36923;SDS011;22841;50.252;18.688;2023-04-25T03:52:27;8.40;;;2.75;;
36923;SDS011;22841;50.252;18.688;2023-04-25T03:54:53;9.07;;;2.80;;
36923;SDS011;22841;50.252;18.688;2023-04-25T03:57:19;2.90;;;2.40;;
36923;SDS011;22841;50.252;18.688;2023-04-25T03:59:45;5.63;;;2.80;;
36923;SDS011;22841;50.252;18.688;2023-04-25T04:02:11;3.35;;;2.70;;
36923;SDS011;22841;50.252;18.688;2023-04-25T04:04:37;3.75;;;2.78;;
36923;SDS011;22841;50.252;18.688;2023-04-25T04:07:03;3.30;;;2.80;;
36923;SDS011;22841;50.252;18.688;2023-04-25T04:09:29;4.47;;;3.08;;
36923;SDS011;22841;50.252;18.688;2023-04-25T04:11:55;3.90;;;2.80;;
36923;SDS011;22841;50.252;18.688;2023-04-25T04:14:21;3.53;;;3.20;;
36923;SDS011;22841;50.252;18.688;2023-04-25T04:16:47;6.13;;;2.97;;
36923;SDS011;22841;50.252;18.688;2023-04-25T04:19:14;3.65;;;2.80;;
36923;SDS011;22841;50.252;18.688;2023-04-25T04:21:40;7.38;;;3.20;;
36923;SDS011;22841;50.252;18.688;2023-04-25T04:24:06;4.90;;;3.40;;
36923;SDS011;22841;50.252;18.688;2023-04-25T04:26:32;4.72;;;3.20;;
36923;SDS011;22841;50.252;18.688;2023-04-25T04:28:59;3.53;;;3.22;;
36923;SDS011;22841;50.252;18.688;2023-04-25T04:31:25;5.60;;;3.50;;
36923;SDS011;22841;50.252;18.688;2023-04-25T04:33:51;5.00;;;3.50;;
36923;SDS011;22841;50.252;18.688;2023-04-25T04:36:17;5.30;;;3.70;;
36923;SDS011;22841;50.252;18.688;2023-04-25T04:38:48;4.85;;;3.63;;
36923;SDS011;22841;50.252;18.688;2023-04-25T04:41:14;4.88;;;3.25;;
36923;SDS011;22841;50.252;18.688;2023-04-25T04:43:40;4.63;;;3.60;;
36923;SDS011;22841;50.252;18.688;2023-04-25T04:46:07;3.80;;;3.35;;
36923;SDS011;22841;50.252;18.688;2023-04-25T04:48:33;4.70;;;3.42;;
36923;SDS011;22841;50.252;18.688;2023-04-25T04:50:59;3.92;;;3.53;;
36923;SDS011;22841;50.252;18.688;2023-04-25T04:53:26;5.05;;;3.70;;
36923;SDS011;22841;50.252;18.688;2023-04-25T04:55:52;6.50;;;4.20;;
36923;SDS011;22841;50.252;18.688;2023-04-25T04:58:18;6.05;;;4.28;;
36923;SDS011;22841;50.252;18.688;2023-04-25T05:00:45;7.15;;;3.60;;
36923;SDS011;22841;50.252;18.688;2023-04-25T05:03:11;4.32;;;3.70;;
36923;SDS011;22841;50.252;18.688;2023-04-25T05:05:38;5.18;;;3.75;;
36923;SDS011;22841;50.252;18.688;2023-04-25T05:08:05;4.63;;;3.55;;
36923;SDS011;22841;50.252;18.688;2023-04-25T05:10:31;4.82;;;4.15;;
36923;SDS011;22841;50.252;18.688;2023-04-25T05:12:58;7.60;;;4.07;;
36923;SDS011;22841;50.252;18.688;2023-04-25T05:15:24;7.25;;;4.97;;
36923;SDS011;22841;50.252;18.688;2023-04-25T05:17:50;7.13;;;4.75;;
36923;SDS011;22841;50.252;18.688;2023-04-25T05:20:16;7.72;;;4.90;;
36923;SDS011;22841;50.252;18.688;2023-04-25T05:22:44;6.55;;;4.70;;
36923;SDS011;22841;50.252;18.688;2023-04-25T05:25:10;7.05;;;5.32;;
36923;SDS011;22841;50.252;18.688;2023-04-25T05:27:36;6.93;;;5.10;;
36923;SDS011;22841;50.252;18.688;2023-04-25T05:30:02;9.98;;;5.38;;
36923;SDS011;22841;50.252;18.688;2023-04-25T05:32:30;11.82;;;6.00;;
36923;SDS011;22841;50.252;18.688;2023-04-25T05:34:56;10.02;;;5.90;;
36923;SDS011;22841;50.252;18.688;2023-04-25T05:37:22;9.13;;;5.25;;
36923;SDS011;22841;50.252;18.688;2023-04-25T05:39:48;7.93;;;6.15;;
36923;SDS011;22841;50.252;18.688;2023-04-25T05:42:14;13.70;;;5.78;;
36923;SDS011;22841;50.252;18.688;2023-04-25T05:44:40;10.35;;;5.80;;
36923;SDS011;22841;50.252;18.688;2023-04-25T05:47:07;11.98;;;5.78;;
36923;SDS011;22841;50.252;18.688;2023-04-25T05:49:34;7.38;;;5.95;;
36923;SDS011;22841;50.252;18.688;2023-04-25T05:52:00;8.80;;;6.13;;
36923;SDS011;22841;50.252;18.688;2023-04-25T05:54:26;9.13;;;5.90;;
36923;SDS011;22841;50.252;18.688;2023-04-25T05:56:52;6.95;;;5.88;;
36923;SDS011;22841;50.252;18.688;2023-04-25T05:59:18;10.15;;;5.78;;
36923;SDS011;22841;50.252;18.688;2023-04-25T06:01:44;8.23;;;5.68;;
36923;SDS011;22841;50.252;18.688;2023-04-25T06:04:11;9.88;;;5.50;;
36923;SDS011;22841;50.252;18.688;2023-04-25T06:06:37;7.90;;;5.90;;
36923;SDS011;22841;50.252;18.688;2023-04-25T06:09:03;9.57;;;5.90;;
36923;SDS011;22841;50.252;18.688;2023-04-25T06:11:29;9.45;;;6.10;;
36923;SDS011;22841;50.252;18.688;2023-04-25T06:13:55;9.27;;;6.03;;
36923;SDS011;22841;50.252;18.688;2023-04-25T06:16:21;7.50;;;5.35;;
36923;SDS011;22841;50.252;18.688;2023-04-25T06:18:47;8.68;;;5.22;;
36923;SDS011;22841;50.252;18.688;2023-04-25T06:21:13;8.60;;;6.45;;
36923;SDS011;22841;50.252;18.688;2023-04-25T06:23:39;9.43;;;6.25;;
36923;SDS011;22841;50.252;18.688;2023-04-25T06:26:05;13.57;;;5.50;;
36923;SDS011;22841;50.252;18.688;2023-04-25T06:28:31;9.25;;;6.55;;
36923;SDS011;22841;50.252;18.688;2023-04-25T06:30:57;10.48;;;6.10;;
36923;SDS011;22841;50.252;18.688;2023-04-25T06:33:23;14.43;;;5.88;;
36923;SDS011;22841;50.252;18.688;2023-04-25T06:35:49;10.35;;;6.07;;
36923;SDS011;22841;50.252;18.688;2023-04-25T06:38:15;9.57;;;6.80;;
36923;SDS011;22841;50.252;18.688;2023-04-25T06:40:41;8.88;;;6.82;;
36923;SDS011;22841;50.252;18.688;2023-04-25T06:43:07;8.93;;;6.43;;
36923;SDS011;22841;50.252;18.688;2023-04-25T06:45:33;9.93;;;6.75;;
36923;SDS011;22841;50.252;18.688;2023-04-25T06:47:59;10.20;;;7.10;;
36923;SDS011;22841;50.252;18.688;2023-04-25T06:50:26;11.75;;;5.82;;
36923;SDS011;22841;50.252;18.688;2023-04-25T06:52:52;10.00;;;7.13;;
36923;SDS011;22841;50.252;18.688;2023-04-25T06:55:18;9.80;;;6.55;;
36923;SDS011;22841;50.252;18.688;2023-04-25T06:57:44;10.30;;;7.18;;
36923;SDS011;22841;50.252;18.688;2023-04-25T07:00:10;9.18;;;6.22;;
36923;SDS011;22841;50.252;18.688;2023-04-25T07:02:36;10.48;;;7.13;;
36923;SDS011;22841;50.252;18.688;2023-04-25T07:05:03;11.43;;;6.90;;
36923;SDS011;22841;50.252;18.688;2023-04-25T07:07:30;11.82;;;7.18;;
36923;SDS011;22841;50.252;18.688;2023-04-25T07:09:56;14.15;;;6.95;;
36923;SDS011;22841;50.252;18.688;2023-04-25T07:12:22;12.05;;;6.68;;
36923;SDS011;22841;50.252;18.688;2023-04-25T07:14:48;11.30;;;6.35;;
36923;SDS011;22841;50.252;18.688;2023-04-25T07:17:14;9.60;;;6.65;;
36923;SDS011;22841;50.252;18.688;2023-04-25T07:19:40;8.55;;;6.38;;
36923;SDS011;22841;50.252;18.688;2023-04-25T07:22:07;11.02;;;6.75;;
36923;SDS011;22841;50.252;18.688;2023-04-25T07:24:33;10.25;;;6.20;;
36923;SDS011;22841;50.252;18.688;2023-04-25T07:26:59;13.02;;;7.85;;
36923;SDS011;22841;50.252;18.688;2023-04-25T07:29:26;14.98;;;7.32;;
36923;SDS011;22841;50.252;18.688;2023-04-25T07:31:52;10.30;;;6.88;;
36923;SDS011;22841;50.252;18.688;2023-04-25T07:34:19;8.90;;;6.25;;
36923;SDS011;22841;50.252;18.688;2023-04-25T07:36:45;11.40;;;6.28;;
36923;SDS011;22841;50.252;18.688;2023-04-25T07:39:11;10.52;;;5.95;;
36923;SDS011;22841;50.252;18.688;2023-04-25T07:41:37;8.57;;;6.60;;
36923;SDS011;22841;50.252;18.688;2023-04-25T07:44:03;14.70;;;6.18;;
36923;SDS011;22841;50.252;18.688;2023-04-25T07:46:30;12.45;;;6.90;;
36923;SDS011;22841;50.252;18.688;2023-04-25T07:48:56;11.43;;;6.30;;
36923;SDS011;22841;50.252;18.688;2023-04-25T07:51:22;8.63;;;6.00;;
36923;SDS011;22841;50.252;18.688;2023-04-25T07:53:48;11.07;;;6.35;;
36923;SDS011;22841;50.252;18.688;2023-04-25T07:56:14;8.88;;;6.47;;
36923;SDS011;22841;50.252;18.688;2023-04-25T07:58:40;7.68;;;6.00;;
36923;SDS011;22841;50.252;18.688;2023-04-25T08:01:06;9.30;;;5.35;;
36923;SDS011;22841;50.252;18.688;2023-04-25T08:03:32;7.95;;;5.53;;
36923;SDS011;22841;50.252;18.688;2023-04-25T08:05:58;8.02;;;5.78;;
36923;SDS011;22841;50.252;18.688;2023-04-25T08:08:24;8.50;;;5.45;;
36923;SDS011;22841;50.252;18.688;2023-04-25T08:10:50;9.60;;;5.78;;
36923;SDS011;22841;50.252;18.688;2023-04-25T08:13:16;9.93;;;5.90;;
36923;SDS011;22841;50.252;18.688;2023-04-25T08:15:42;10.23;;;5.93;;
36923;SDS011;22841;50.252;18.688;2023-04-25T08:18:08;10.65;;;5.50;;
36923;SDS011;22841;50.252;18.688;2023-04-25T08:20:34;7.70;;;5.53;;
36923;SDS011;22841;50.252;18.688;2023-04-25T08:23:01;8.95;;;6.10;;
36923;SDS011;22841;50.252;18.688;2023-04-25T08:25:27;11.23;;;5.85;;
36923;SDS011;22841;50.252;18.688;2023-04-25T08:27:54;10.13;;;6.20;;
36923;SDS011;22841;50.252;18.688;2023-04-25T08:30:21;10.88;;;5.75;;
36923;SDS011;22841;50.252;18.688;2023-04-25T08:32:47;8.73;;;5.50;;
36923;SDS011;22841;50.252;18.688;2023-04-25T08:35:13;8.00;;;5.32;;
36923;SDS011;22841;50.252;18.688;2023-04-25T08:37:39;11.35;;;5.28;;
36923;SDS011;22841;50.252;18.688;2023-04-25T08:40:05;6.30;;;5.32;;
36923;SDS011;22841;50.252;18.688;2023-04-25T08:42:36;9.20;;;5.13;;
36923;SDS011;22841;50.252;18.688;2023-04-25T08:45:03;5.03;;;4.35;;
36923;SDS011;22841;50.252;18.688;2023-04-25T08:47:30;11.07;;;5.20;;
36923;SDS011;22841;50.252;18.688;2023-04-25T08:49:58;5.95;;;4.85;;
36923;SDS011;22841;50.252;18.688;2023-04-25T08:52:27;5.20;;;4.65;;
36923;SDS011;22841;50.252;18.688;2023-04-25T08:54:57;5.72;;;5.05;;
36923;SDS011;22841;50.252;18.688;2023-04-25T08:57:25;5.57;;;4.32;;
36923;SDS011;22841;50.252;18.688;2023-04-25T08:59:52;6.22;;;4.40;;
36923;SDS011;22841;50.252;18.688;2023-04-25T09:02:20;6.95;;;4.38;;
36923;SDS011;22841;50.252;18.688;2023-04-25T09:04:47;8.90;;;4.30;;
36923;SDS011;22841;50.252;18.688;2023-04-25T09:07:15;5.90;;;4.53;;
36923;SDS011;22841;50.252;18.688;2023-04-25T09:09:45;7.22;;;4.10;;
36923;SDS011;22841;50.252;18.688;2023-04-25T09:12:11;7.28;;;5.05;;
36923;SDS011;22841;50.252;18.688;2023-04-25T09:14:37;6.15;;;4.15;;
36923;SDS011;22841;50.252;18.688;2023-04-25T09:17:04;9.70;;;4.57;;
36923;SDS011;22841;50.252;18.688;2023-04-25T09:19:33;6.50;;;4.38;;
36923;SDS011;22841;50.252;18.688;2023-04-25T09:22:02;5.03;;;3.95;;
36923;SDS011;22841;50.252;18.688;2023-04-25T09:24:30;6.50;;;4.45;;
36923;SDS011;22841;50.252;18.688;2023-04-25T09:26:57;7.68;;;3.90;;
36923;SDS011;22841;50.252;18.688;2023-04-25T09:29:34;9.05;;;4.35;;
36923;SDS011;22841;50.252;18.688;2023-04-25T09:34:49;5.15;;;3.60;;
36923;SDS011;22841;50.252;18.688;2023-04-25T09:37:17;4.53;;;3.28;;
36923;SDS011;22841;50.252;18.688;2023-04-25T09:39:45;8.00;;;3.63;;
36923;SDS011;22841;50.252;18.688;2023-04-25T09:42:15;6.32;;;4.70;;
36923;SDS011;22841;50.252;18.688;2023-04-25T09:44:42;6.75;;;3.83;;
36923;SDS011;22841;50.252;18.688;2023-04-25T09:47:13;6.75;;;3.92;;
36923;SDS011;22841;50.252;18.688;2023-04-25T09:49:41;7.22;;;4.03;;
36923;SDS011;22841;50.252;18.688;2023-04-25T09:52:08;7.88;;;4.00;;
36923;SDS011;22841;50.252;18.688;2023-04-25T09:54:35;6.28;;;3.75;;
36923;SDS011;22841;50.252;18.688;2023-04-25T09:57:11;5.03;;;3.88;;
36923;SDS011;22841;50.252;18.688;2023-04-25T10:00:11;6.82;;;4.25;;
36923;SDS011;22841;50.252;18.688;2023-04-25T10:02:35;5.43;;;4.53;;
36923;SDS011;22841;50.252;18.688;2023-04-25T10:05:05;6.32;;;3.80;;
36923;SDS011;22841;50.252;18.688;2023-04-25T10:07:33;13.52;;;4.45;;
36923;SDS011;22841;50.252;18.688;2023-04-25T10:10:03;9.23;;;4.63;;
36923;SDS011;22841;50.252;18.688;2023-04-25T10:12:32;9.95;;;3.83;;
36923;SDS011;22841;50.252;18.688;2023-04-25T10:14:58;9.60;;;4.18;;
36923;SDS011;22841;50.252;18.688;2023-04-25T10:17:26;10.35;;;3.88;;
36923;SDS011;22841;50.252;18.688;2023-04-25T10:19:54;7.75;;;4.53;;
36923;SDS011;22841;50.252;18.688;2023-04-25T10:22:23;6.80;;;4.85;;
36923;SDS011;22841;50.252;18.688;2023-04-25T10:24:51;7.72;;;4.38;;
36923;SDS011;22841;50.252;18.688;2023-04-25T10:27:18;5.25;;;3.75;;
36923;SDS011;22841;50.252;18.688;2023-04-25T10:29:44;10.10;;;4.18;;
36923;SDS011;22841;50.252;18.688;2023-04-25T10:32:23;9.60;;;4.60;;
36923;SDS011;22841;50.252;18.688;2023-04-25T10:34:49;7.25;;;3.95;;
36923;SDS011;22841;50.252;18.688;2023-04-25T10:37:16;6.38;;;4.13;;
36923;SDS011;22841;50.252;18.688;2023-04-25T10:39:44;8.02;;;4.07;;
36923;SDS011;22841;50.252;18.688;2023-04-25T10:42:12;8.13;;;4.03;;
36923;SDS011;22841;50.252;18.688;2023-04-25T10:44:38;8.13;;;4.18;;
36923;SDS011;22841;50.252;18.688;2023-04-25T10:47:07;8.43;;;4.10;;
36923;SDS011;22841;50.252;18.688;2023-04-25T10:49:36;11.18;;;3.78;;
36923;SDS011;22841;50.252;18.688;2023-04-25T10:54:52;5.70;;;3.95;;
36923;SDS011;22841;50.252;18.688;2023-04-25T10:57:38;8.70;;;3.75;;
36923;SDS011;22841;50.252;18.688;2023-04-25T11:00:15;5.93;;;3.70;;
36923;SDS011;22841;50.252;18.688;2023-04-25T11:02:47;6.07;;;3.45;;
36923;SDS011;22841;50.252;18.688;2023-04-25T11:07:56;7.30;;;4.03;;
36923;SDS011;22841;50.252;18.688;2023-04-25T11:10:27;7.45;;;3.72;;
36923;SDS011;22841;50.252;18.688;2023-04-25T11:12:53;6.30;;;3.70;;
36923;SDS011;22841;50.252;18.688;2023-04-25T11:15:20;4.38;;;3.75;;
36923;SDS011;22841;50.252;18.688;2023-04-25T11:17:46;4.45;;;3.40;;
36923;SDS011;22841;50.252;18.688;2023-04-25T11:20:12;7.13;;;4.00;;
36923;SDS011;22841;50.252;18.688;2023-04-25T11:22:39;7.85;;;3.88;;
36923;SDS011;22841;50.252;18.688;2023-04-25T11:25:09;4.90;;;4.40;;
36923;SDS011;22841;50.252;18.688;2023-04-25T11:28:20;5.03;;;4.28;;
36923;SDS011;22841;50.252;18.688;2023-04-25T11:30:26;6.07;;;3.92;;
36923;SDS011;22841;50.252;18.688;2023-04-25T11:32:54;6.10;;;3.88;;
36923;SDS011;22841;50.252;18.688;2023-04-25T11:35:20;7.10;;;3.75;;
36923;SDS011;22841;50.252;18.688;2023-04-25T11:37:48;5.45;;;3.88;;
36923;SDS011;22841;50.252;18.688;2023-04-25T11:40:15;9.88;;;3.45;;
36923;SDS011;22841;50.252;18.688;2023-04-25T11:42:45;4.93;;;4.05;;
36923;SDS011;22841;50.252;18.688;2023-04-25T11:45:12;6.68;;;3.88;;
36923;SDS011;22841;50.252;18.688;2023-04-25T11:47:39;11.50;;;4.05;;
36923;SDS011;22841;50.252;18.688;2023-04-25T11:50:06;4.18;;;3.78;;
36923;SDS011;22841;50.252;18.688;2023-04-25T11:52:40;4.55;;;3.97;;
36923;SDS011;22841;50.252;18.688;2023-04-25T11:55:08;11.25;;;3.80;;
36923;SDS011;22841;50.252;18.688;2023-04-25T11:57:42;6.85;;;3.28;;
36923;SDS011;22841;50.252;18.688;2023-04-25T12:02:42;5.68;;;4.10;;
36923;SDS011;22841;50.252;18.688;2023-04-25T12:05:09;9.52;;;3.92;;
36923;SDS011;22841;50.252;18.688;2023-04-25T12:07:37;7.28;;;4.47;;
36923;SDS011;22841;50.252;18.688;2023-04-25T12:10:07;10.85;;;3.80;;
36923;SDS011;22841;50.252;18.688;2023-04-25T12:12:34;7.00;;;3.90;;
36923;SDS011;22841;50.252;18.688;2023-04-25T12:15:14;8.85;;;3.95;;
36923;SDS011;22841;50.252;18.688;2023-04-25T12:17:48;5.57;;;3.85;;
36923;SDS011;22841;50.252;18.688;2023-04-25T12:20:17;7.40;;;3.67;;
36923;SDS011;22841;50.252;18.688;2023-04-25T12:22:49;10.73;;;4.10;;
36923;SDS011;22841;50.252;18.688;2023-04-25T12:31:02;7.03;;;4.28;;
36923;SDS011;22841;50.252;18.688;2023-04-25T12:33:33;4.55;;;3.88;;
36923;SDS011;22841;50.252;18.688;2023-04-25T12:36:01;5.80;;;4.57;;
36923;SDS011;22841;50.252;18.688;2023-04-25T12:38:38;11.57;;;4.07;;
36923;SDS011;22841;50.252;18.688;2023-04-25T12:41:06;6.80;;;4.70;;
36923;SDS011;22841;50.252;18.688;2023-04-25T12:43:32;8.88;;;5.03;;
36923;SDS011;22841;50.252;18.688;2023-04-25T12:45:59;8.85;;;4.60;;
36923;SDS011;22841;50.252;18.688;2023-04-25T12:48:25;6.30;;;4.40;;
36923;SDS011;22841;50.252;18.688;2023-04-25T12:50:51;11.02;;;4.68;;
36923;SDS011;22841;50.252;18.688;2023-04-25T12:53:18;8.05;;;4.50;;
36923;SDS011;22841;50.252;18.688;2023-04-25T12:55:45;5.70;;;4.20;;
36923;SDS011;22841;50.252;18.688;2023-04-25T12:58:12;7.15;;;4.65;;
36923;SDS011;22841;50.252;18.688;2023-04-25T13:00:43;8.05;;;4.72;;
36923;SDS011;22841;50.252;18.688;2023-04-25T13:03:09;8.55;;;4.75;;
36923;SDS011;22841;50.252;18.688;2023-04-25T13:05:36;11.45;;;4.45;;
36923;SDS011;22841;50.252;18.688;2023-04-25T13:08:03;8.02;;;4.65;;
36923;SDS011;22841;50.252;18.688;2023-04-25T13:10:29;8.95;;;5.00;;
36923;SDS011;22841;50.252;18.688;2023-04-25T13:12:56;6.45;;;5.22;;
36923;SDS011;22841;50.252;18.688;2023-04-25T13:15:22;7.25;;;4.65;;
36923;SDS011;22841;50.252;18.688;2023-04-25T13:17:48;6.97;;;4.95;;
36923;SDS011;22841;50.252;18.688;2023-04-25T13:20:14;4.60;;;4.20;;
36923;SDS011;22841;50.252;18.688;2023-04-25T13:22:41;8.95;;;4.35;;
36923;SDS011;22841;50.252;18.688;2023-04-25T13:25:08;7.90;;;4.55;;
36923;SDS011;22841;50.252;18.688;2023-04-25T13:27:35;9.27;;;5.35;;
36923;SDS011;22841;50.252;18.688;2023-04-25T13:30:02;11.73;;;4.82;;
36923;SDS011;22841;50.252;18.688;2023-04-25T13:32:35;12.27;;;5.90;;
36923;SDS011;22841;50.252;18.688;2023-04-25T13:35:03;7.32;;;4.55;;
36923;SDS011;22841;50.252;18.688;2023-04-25T13:37:30;7.38;;;4.47;;
36923;SDS011;22841;50.252;18.688;2023-04-25T13:40:01;9.98;;;5.38;;
36923;SDS011;22841;50.252;18.688;2023-04-25T13:42:34;8.73;;;5.72;;
36923;SDS011;22841;50.252;18.688;2023-04-25T13:45:01;8.35;;;5.30;;
36923;SDS011;22841;50.252;18.688;2023-04-25T13:47:28;7.65;;;4.85;;
36923;SDS011;22841;50.252;18.688;2023-04-25T13:49:54;8.27;;;4.50;;
36923;SDS011;22841;50.252;18.688;2023-04-25T13:52:20;6.40;;;4.90;;
36923;SDS011;22841;50.252;18.688;2023-04-25T13:54:46;11.75;;;4.65;;
36923;SDS011;22841;50.252;18.688;2023-04-25T13:57:12;7.97;;;4.72;;
36923;SDS011;22841;50.252;18.688;2023-04-25T13:59:38;7.70;;;5.45;;
36923;SDS011;22841;50.252;18.688;2023-04-25T14:02:06;7.35;;;4.43;;
36923;SDS011;22841;50.252;18.688;2023-04-25T14:04:32;7.25;;;4.68;;
36923;SDS011;22841;50.252;18.688;2023-04-25T14:06:59;9.43;;;4.97;;
36923;SDS011;22841;50.252;18.688;2023-04-25T14:09:25;8.00;;;4.20;;
36923;SDS011;22841;50.252;18.688;2023-04-25T14:11:52;7.20;;;4.10;;
36923;SDS011;22841;50.252;18.688;2023-04-25T14:14:19;5.95;;;4.95;;
36923;SDS011;22841;50.252;18.688;2023-04-25T14:16:46;6.45;;;4.05;;
36923;SDS011;22841;50.252;18.688;2023-04-25T14:19:16;5.47;;;4.22;;
36923;SDS011;22841;50.252;18.688;2023-04-25T14:21:43;7.22;;;4.35;;
36923;SDS011;22841;50.252;18.688;2023-04-25T14:24:09;6.28;;;4.03;;
36923;SDS011;22841;50.252;18.688;2023-04-25T14:26:38;6.43;;;3.72;;
36923;SDS011;22841;50.252;18.688;2023-04-25T14:29:05;6.97;;;4.43;;
36923;SDS011;22841;50.252;18.688;2023-04-25T14:31:33;7.05;;;3.85;;
36923;SDS011;22841;50.252;18.688;2023-04-25T14:33:59;8.57;;;4.50;;
36923;SDS011;22841;50.252;18.688;2023-04-25T14:36:26;6.32;;;4.10;;
36923;SDS011;22841;50.252;18.688;2023-04-25T14:38:54;6.93;;;4.03;;
36923;SDS011;22841;50.252;18.688;2023-04-25T14:41:20;4.35;;;3.65;;
36923;SDS011;22841;50.252;18.688;2023-04-25T14:43:46;6.85;;;3.90;;
36923;SDS011;22841;50.252;18.688;2023-04-25T14:46:12;8.05;;;4.47;;